Time;durP1;ratioP1;P1;durP2;ratioP2;P2;SDS_P1;SDS_P2;PMS_P1;PMS_P2;Temp;Humidity;BMP_temperature;BMP_pressure;BME280_temperature;BME280_humidity;BME280_pressure;Samples;Min_cycle;Max_cycle;Signal;HPM_P1;HPM_P2
2022/12/11 09:15:19;;;;;;;16.13;6.80;;;;;;;;;;4957446;27;20184;-81
2022/12/11 09:17:45;;;;;;;24.35;7.57;;;;;;;;;;4949476;28;20109;-82
2022/12/11 09:20:10;;;;;;;27.67;7.60;;;;;;;;;;5039732;28;20045;-81
2022/12/11 09:22:35;;;;;;;26.33;8.45;;;;;;;;;;5056428;28;20033;-82
2022/12/11 09:25:01;;;;;;;27.23;9.60;;;;;;;;;;5043156;28;20072;-82
2022/12/11 09:27:26;;;;;;;21.10;7.68;;;;;;;;;;5021482;28;20502;-83
2022/12/11 09:29:51;;;;;;;30.33;8.50;;;;;;;;;;5041975;28;20030;-82
2022/12/11 09:32:17;;;;;;;26.33;8.65;;;;;;;;;;5036336;28;20438;-82
2022/12/11 09:34:42;;;;;;;29.83;9.68;;;;;;;;;;5040716;28;20414;-81
2022/12/11 09:37:07;;;;;;;18.50;6.55;;;;;;;;;;5041602;28;20126;-83
2022/12/11 09:39:33;;;;;;;21.98;7.72;;;;;;;;;;5041924;28;20056;-83
2022/12/11 09:42:25;;;;;;;30.40;8.07;;;;;;;;;;5047726;28;20501;-82
2022/12/11 09:44:58;;;;;;;19.80;7.70;;;;;;;;;;5050077;28;20045;-82
2022/12/11 09:47:34;;;;;;;16.90;5.78;;;;;;;;;;5040551;28;20048;-82
2022/12/11 09:50:16;;;;;;;11.80;5.30;;;;;;;;;;5038131;28;20038;-82
2022/12/11 09:53:19;;;;;;;18.23;7.00;;;;;;;;;;5025549;28;20530;-83
2022/12/11 09:55:58;;;;;;;21.55;7.00;;;;;;;;;;5026250;28;20025;-83
2022/12/11 09:58:48;;;;;;;35.25;10.52;;;;;;;;;;5021431;28;20090;-83
2022/12/11 10:01:44;;;;;;;31.35;10.68;;;;;;;;;;5031377;28;20069;-83
2022/12/11 10:04:40;;;;;;;20.05;5.95;;;;;;;;;;5016901;28;20034;-83
2022/12/11 10:07:32;;;;;;;19.65;8.73;;;;;;;;;;5030724;28;20049;-82
2022/12/11 10:10:09;;;;;;;20.38;6.47;;;;;;;;;;5040679;28;20041;-83
2022/12/11 10:13:10;;;;;;;15.27;5.40;;;;;;;;;;5032003;28;20120;-82
2022/12/11 10:15:42;;;;;;;19.75;7.88;;;;;;;;;;5016989;28;20072;-83
2022/12/11 10:18:16;;;;;;;30.55;7.13;;;;;;;;;;5013418;28;20066;-83
2022/12/11 10:20:43;;;;;;;18.08;6.60;;;;;;;;;;5020444;28;20519;-83
2022/12/11 10:23:17;;;;;;;19.23;6.90;;;;;;;;;;5043328;28;20048;-82
2022/12/11 10:25:46;;;;;;;;;;;;;;;;;;5034453;28;20018;-82
2022/12/11 10:28:14;;;;;;;15.85;6.43;;;;;;;;;;5044007;28;19913;-82
2022/12/11 10:30:47;;;;;;;28.15;7.68;;;;;;;;;;5022325;28;20733;-82
2022/12/11 10:33:21;;;;;;;22.27;8.38;;;;;;;;;;5020698;28;20061;-82
2022/12/11 10:35:53;;;;;;;22.42;7.90;;;;;;;;;;4999009;28;20132;-82
2022/12/11 10:38:29;;;;;;;21.30;7.22;;;;;;;;;;5007097;28;20034;-82
2022/12/11 10:41:00;;;;;;;15.88;6.85;;;;;;;;;;5013165;28;20037;-82
2022/12/11 10:43:52;;;;;;;20.13;6.93;;;;;;;;;;5048170;28;20448;-82
2022/12/11 10:46:17;;;;;;;22.65;8.07;;;;;;;;;;5043022;28;20043;-82
2022/12/11 10:48:55;;;;;;;24.67;7.38;;;;;;;;;;5036907;28;20850;-82
2022/12/11 10:51:23;;;;;;;24.23;8.00;;;;;;;;;;5023246;28;20576;-82
2022/12/11 10:53:55;;;;;;;21.17;8.07;;;;;;;;;;5017286;28;20256;-82
2022/12/11 10:56:28;;;;;;;32.40;7.75;;;;;;;;;;5007136;28;20034;-82
2022/12/11 10:58:54;;;;;;;18.25;6.15;;;;;;;;;;5008301;28;20041;-82
2022/12/11 11:01:22;;;;;;;23.20;7.55;;;;;;;;;;5008114;28;20025;-82
2022/12/11 11:03:58;;;;;;;23.75;7.80;;;;;;;;;;5008529;28;20117;-80
2022/12/11 11:06:25;;;;;;;19.75;5.05;;;;;;;;;;5008012;28;20034;-82
2022/12/11 11:08:53;;;;;;;22.25;6.68;;;;;;;;;;5024303;28;20078;-82
2022/12/11 11:11:21;;;;;;;15.88;6.22;;;;;;;;;;5042191;28;20037;-82
2022/12/11 11:13:47;;;;;;;20.33;7.32;;;;;;;;;;5056239;28;20041;-81
2022/12/11 11:16:16;;;;;;;16.52;6.63;;;;;;;;;;5035777;28;20030;-82
2022/12/11 11:18:50;;;;;;;17.48;6.38;;;;;;;;;;5003394;28;20046;-82
2022/12/11 11:21:18;;;;;;;14.32;6.80;;;;;;;;;;5019653;28;20041;-83
2022/12/11 11:23:44;;;;;;;16.33;6.95;;;;;;;;;;5043051;28;20108;-82
2022/12/11 11:26:10;;;;;;;22.13;6.90;;;;;;;;;;5026838;28;20497;-82
2022/12/11 11:28:45;;;;;;;21.45;6.95;;;;;;;;;;5027433;28;20033;-82
2022/12/11 11:31:13;;;;;;;18.67;6.57;;;;;;;;;;5027694;28;20029;-82
2022/12/11 11:34:06;;;;;;;16.98;6.18;;;;;;;;;;5027056;28;20120;-82
2022/12/11 11:36:35;;;;;;;23.77;8.10;;;;;;;;;;5012490;28;20157;-80
2022/12/11 11:39:38;;;;;;;14.85;5.90;;;;;;;;;;5001691;28;20129;-85
2022/12/11 11:42:38;;;;;;;14.13;5.95;;;;;;;;;;4982360;28;20042;-83
2022/12/11 11:45:27;;;;;;;12.00;5.93;;;;;;;;;;5006891;28;20137;-82
2022/12/11 11:48:23;;;;;;;16.42;6.22;;;;;;;;;;5021183;28;20815;-83
2022/12/11 11:50:49;;;;;;;14.18;6.53;;;;;;;;;;5024870;28;20523;-83
2022/12/11 11:53:36;;;;;;;15.82;6.95;;;;;;;;;;5024687;28;20059;-83
2022/12/11 11:56:22;;;;;;;15.15;5.63;;;;;;;;;;5040906;28;20108;-83
2022/12/11 11:59:18;;;;;;;13.55;4.30;;;;;;;;;;5020655;28;20124;-83
2022/12/11 12:01:43;;;;;;;16.05;6.60;;;;;;;;;;5026266;28;20124;-83
2022/12/11 12:04:10;;;;;;;17.23;5.85;;;;;;;;;;5023677;28;20053;-83
2022/12/11 12:06:44;;;;;;;17.42;6.40;;;;;;;;;;5026463;28;20090;-83
2022/12/11 12:09:32;;;;;;;11.02;5.43;;;;;;;;;;5039282;28;20040;-83
2022/12/11 12:12:19;;;;;;;14.00;4.30;;;;;;;;;;5022832;28;20033;-83
2022/12/11 12:15:04;;;;;;;12.50;5.53;;;;;;;;;;5018011;28;20064;-83
2022/12/11 12:17:38;;;;;;;15.80;5.60;;;;;;;;;;5012115;28;20049;-83
2022/12/11 12:20:16;;;;;;;15.60;6.05;;;;;;;;;;5024507;28;20706;-83
2022/12/11 12:23:19;;;;;;;13.25;5.93;;;;;;;;;;5022801;28;20052;-83
2022/12/11 12:25:54;;;;;;;16.25;5.55;;;;;;;;;;5023257;28;20022;-83
2022/12/11 12:28:43;;;;;;;13.65;5.85;;;;;;;;;;5016229;28;20064;-83
2022/12/11 12:31:21;;;;;;;16.58;5.68;;;;;;;;;;5006140;28;20046;-83
2022/12/11 12:33:52;;;;;;;13.38;6.28;;;;;;;;;;5019654;28;20034;-83
2022/12/11 12:36:40;;;;;;;13.43;5.82;;;;;;;;;;5020940;28;20037;-83
2022/12/11 12:39:25;;;;;;;17.95;5.70;;;;;;;;;;5004121;28;20042;-82
2022/12/11 12:42:16;;;;;;;11.75;5.50;;;;;;;;;;5004607;28;20042;-82
2022/12/11 12:44:57;;;;;;;9.68;4.03;;;;;;;;;;5004074;28;20034;-82
2022/12/11 12:47:24;;;;;;;9.00;4.03;;;;;;;;;;5001438;28;20042;-82
2022/12/11 12:49:53;;;;;;;12.48;5.32;;;;;;;;;;4998937;28;20030;-81
2022/12/11 12:52:25;;;;;;;13.80;5.22;;;;;;;;;;4997136;28;20034;-82
2022/12/11 12:55:12;;;;;;;13.85;5.32;;;;;;;;;;5003408;28;20045;-82
2022/12/11 12:57:43;;;;;;;9.23;5.13;;;;;;;;;;5004584;28;20091;-81
2022/12/11 13:00:11;;;;;;;10.40;4.43;;;;;;;;;;5003267;28;20584;-81
2022/12/11 13:02:46;;;;;;;12.02;5.10;;;;;;;;;;5003954;28;20073;-82
2022/12/11 13:05:29;;;;;;;15.05;5.75;;;;;;;;;;5005547;28;20597;-83
2022/12/11 13:07:58;;;;;;;13.73;5.47;;;;;;;;;;5004256;28;20136;-82
2022/12/11 13:10:37;;;;;;;12.32;5.13;;;;;;;;;;4997032;28;20035;-83
2022/12/11 13:13:04;;;;;;;14.10;5.45;;;;;;;;;;5004736;28;20053;-82
2022/12/11 13:15:42;;;;;;;13.57;5.25;;;;;;;;;;5001753;28;20500;-82
2022/12/11 13:18:32;;;;;;;13.05;5.45;;;;;;;;;;5001146;28;20031;-82
2022/12/11 13:20:57;;;;;;;2.78;2.25;;;;;;;;;;4999443;28;20125;-83
2022/12/11 13:23:32;;;;;;;16.63;6.30;;;;;;;;;;4991938;28;20109;-82
2022/12/11 13:26:00;;;;;;;17.70;5.28;;;;;;;;;;5005691;28;20034;-82
2022/12/11 13:28:52;;;;;;;35.08;10.85;;;;;;;;;;5005924;28;20025;-81
2022/12/11 13:31:18;;;;;;;13.27;6.00;;;;;;;;;;5017629;28;20107;-82
2022/12/11 13:33:53;;;;;;;23.05;7.65;;;;;;;;;;5000919;28;20038;-82
2022/12/11 13:36:18;;;;;;;26.83;8.13;;;;;;;;;;5001386;28;20080;-82
2022/12/11 13:39:14;;;;;;;17.20;6.63;;;;;;;;;;5005351;28;20038;-82
2022/12/11 13:41:46;;;;;;;22.27;7.10;;;;;;;;;;5003519;28;20030;-82
2022/12/11 13:44:19;;;;;;;47.63;12.20;;;;;;;;;;5002949;28;20042;-82
2022/12/11 13:46:44;;;;;;;47.67;15.18;;;;;;;;;;5003609;28;20022;-82
2022/12/11 13:49:20;;;;;;;24.08;8.48;;;;;;;;;;5017868;28;20014;-82
2022/12/11 13:51:57;;;;;;;12.88;4.97;;;;;;;;;;5024839;28;20037;-81
2022/12/11 13:54:23;;;;;;;11.73;4.30;;;;;;;;;;5024506;28;20041;-82
2022/12/11 13:57:12;;;;;;;12.80;5.55;;;;;;;;;;5016268;28;20527;-82
2022/12/11 13:59:41;;;;;;;10.90;4.65;;;;;;;;;;4984509;28;20038;-82
2022/12/11 14:02:22;;;;;;;14.32;4.50;;;;;;;;;;5002440;28;20028;-81
2022/12/11 14:04:52;;;;;;;9.57;4.85;;;;;;;;;;5005586;28;20018;-80
2022/12/11 14:07:25;;;;;;;11.65;4.65;;;;;;;;;;5015158;28;20526;-79
2022/12/11 14:10:04;;;;;;;9.68;3.92;;;;;;;;;;5007223;28;20057;-79
2022/12/11 14:12:30;;;;;;;11.10;4.07;;;;;;;;;;5007302;28;20033;-79
2022/12/11 14:14:58;;;;;;;11.75;4.60;;;;;;;;;;5023240;28;20120;-79
2022/12/11 14:17:27;;;;;;;12.57;4.45;;;;;;;;;;5026127;28;20041;-79
2022/12/11 14:19:54;;;;;;;8.23;4.10;;;;;;;;;;5022681;28;20695;-78
2022/12/11 14:22:22;;;;;;;12.15;5.32;;;;;;;;;;5026562;28;20022;-83
2022/12/11 14:24:50;;;;;;;11.35;4.47;;;;;;;;;;5025840;28;20533;-82
2022/12/11 14:27:17;;;;;;;10.65;3.90;;;;;;;;;;5027669;28;20049;-82
2022/12/11 14:29:43;;;;;;;7.05;2.95;;;;;;;;;;5024559;28;20043;-82
2022/12/11 14:32:19;;;;;;;11.82;4.82;;;;;;;;;;5024374;28;20064;-82
2022/12/11 14:34:48;;;;;;;11.35;4.25;;;;;;;;;;5042530;28;20025;-82
2022/12/11 14:37:16;;;;;;;11.80;3.95;;;;;;;;;;5033245;28;20079;-82
2022/12/11 14:39:56;;;;;;;12.27;4.55;;;;;;;;;;5040243;28;20678;-81
2022/12/11 14:42:28;;;;;;;12.95;5.65;;;;;;;;;;5005809;28;20056;-78
2022/12/11 14:45:00;;;;;;;9.98;3.97;;;;;;;;;;5011218;28;20138;-78
2022/12/11 14:47:33;;;;;;;12.27;4.70;;;;;;;;;;5020796;28;20045;-79
2022/12/11 14:50:13;;;;;;;12.50;4.88;;;;;;;;;;5019754;28;20519;-78
2022/12/11 14:52:43;;;;;;;10.50;4.45;;;;;;;;;;5017583;28;20112;-78
2022/12/11 14:55:17;;;;;;;10.75;4.13;;;;;;;;;;5020046;28;20068;-78
2022/12/11 14:57:46;;;;;;;11.45;4.50;;;;;;;;;;5027621;28;20761;-80
2022/12/11 15:00:23;;;;;;;10.52;4.28;;;;;;;;;;5017682;28;20415;-79
2022/12/11 15:03:00;;;;;;;9.32;4.07;;;;;;;;;;5012771;28;20037;-79
2022/12/11 15:05:26;;;;;;;8.77;4.05;;;;;;;;;;5011750;28;20068;-78
2022/12/11 15:08:02;;;;;;;10.10;4.20;;;;;;;;;;5012664;28;20033;-78
2022/12/11 15:10:36;;;;;;;9.40;4.15;;;;;;;;;;5024846;28;20029;-79
2022/12/11 15:13:04;;;;;;;14.10;4.45;;;;;;;;;;5008686;28;20447;-79
2022/12/11 15:15:37;;;;;;;8.68;3.67;;;;;;;;;;5003546;28;20673;-79
2022/12/11 15:18:07;;;;;;;12.68;3.95;;;;;;;;;;5036076;28;20562;-79
2022/12/11 15:20:32;;;;;;;9.68;4.72;;;;;;;;;;5056586;28;20052;-78
2022/12/11 15:23:00;;;;;;;7.70;3.33;;;;;;;;;;5038330;28;20096;-80
2022/12/11 15:25:27;;;;;;;8.57;3.95;;;;;;;;;;5042271;28;20112;-82
2022/12/11 15:27:58;;;;;;;15.68;3.97;;;;;;;;;;5026066;28;20029;-81
2022/12/11 15:30:30;;;;;;;8.73;3.75;;;;;;;;;;5039796;28;20533;-83
2022/12/11 15:33:08;;;;;;;9.52;4.70;;;;;;;;;;5040384;28;20030;-83
2022/12/11 15:35:33;;;;;;;9.13;4.07;;;;;;;;;;5014490;28;20076;-84
2022/12/11 15:37:59;;;;;;;12.80;4.68;;;;;;;;;;5020757;28;20041;-82
2022/12/11 15:40:25;;;;;;;9.05;4.28;;;;;;;;;;5011354;28;20112;-80
2022/12/11 15:42:51;;;;;;;13.45;6.20;;;;;;;;;;5050674;28;20041;-85
2022/12/11 15:45:22;;;;;;;20.10;7.07;;;;;;;;;;5025432;28;20056;-83
2022/12/11 15:47:48;;;;;;;21.27;9.95;;;;;;;;;;5027004;28;20043;-82
2022/12/11 15:50:21;;;;;;;23.77;7.85;;;;;;;;;;5041537;28;20044;-82
2022/12/11 15:52:47;;;;;;;26.15;10.38;;;;;;;;;;5020487;28;20037;-83
2022/12/11 15:55:13;;;;;;;21.92;9.38;;;;;;;;;;5025417;28;20044;-80
2022/12/11 15:57:44;;;;;;;23.75;10.10;;;;;;;;;;5014428;28;20076;-83
2022/12/11 16:00:14;;;;;;;25.15;11.15;;;;;;;;;;5038446;28;20131;-82
2022/12/11 16:02:39;;;;;;;30.67;13.18;;;;;;;;;;5006769;28;20042;-82
2022/12/11 16:05:05;;;;;;;26.02;11.20;;;;;;;;;;4999326;28;20048;-82
2022/12/11 16:07:31;;;;;;;24.30;11.02;;;;;;;;;;5011683;28;20597;-82
2022/12/11 16:09:56;;;;;;;22.60;10.10;;;;;;;;;;5028449;28;20454;-81
2022/12/11 16:12:22;;;;;;;23.35;9.70;;;;;;;;;;5008381;28;20046;-82
2022/12/11 16:14:47;;;;;;;21.10;8.60;;;;;;;;;;5005112;28;20050;-82
2022/12/11 16:17:14;;;;;;;15.95;7.70;;;;;;;;;;5006828;28;20046;-82
2022/12/11 16:19:40;;;;;;;16.98;6.45;;;;;;;;;;5005446;28;20029;-82
2022/12/11 16:22:07;;;;;;;14.13;6.22;;;;;;;;;;5004858;28;20026;-82
2022/12/11 16:24:33;;;;;;;17.48;7.10;;;;;;;;;;5014039;28;20051;-82
2022/12/11 16:26:59;;;;;;;20.65;7.68;;;;;;;;;;5022494;28;20053;-82
2022/12/11 16:29:24;;;;;;;14.50;6.18;;;;;;;;;;5029600;28;20148;-82
2022/12/11 16:31:49;;;;;;;15.80;6.70;;;;;;;;;;5029974;28;20037;-82
2022/12/11 16:34:15;;;;;;;14.85;6.95;;;;;;;;;;5014659;28;20612;-82
2022/12/11 16:36:40;;;;;;;16.48;6.97;;;;;;;;;;5008622;28;20503;-82
2022/12/11 16:39:06;;;;;;;20.80;6.88;;;;;;;;;;5008904;28;20038;-82
2022/12/11 16:41:31;;;;;;;16.15;6.65;;;;;;;;;;5008028;28;20103;-82
2022/12/11 16:44:00;;;;;;;14.45;6.35;;;;;;;;;;5011786;28;20037;-82
2022/12/11 16:46:25;;;;;;;15.73;7.18;;;;;;;;;;5013836;28;20041;-82
2022/12/11 16:48:51;;;;;;;13.43;6.60;;;;;;;;;;5015989;28;20099;-82
2022/12/11 16:51:16;;;;;;;13.98;6.07;;;;;;;;;;5040144;28;20414;-82
2022/12/11 16:53:42;;;;;;;13.60;5.78;;;;;;;;;;5040279;28;20034;-81
2022/12/11 16:56:08;;;;;;;13.80;6.53;;;;;;;;;;5025156;28;20551;-82
2022/12/11 16:58:33;;;;;;;17.27;6.60;;;;;;;;;;5021479;28;20057;-79
2022/12/11 17:01:01;;;;;;;16.20;6.60;;;;;;;;;;5037928;28;20402;-82
2022/12/11 17:03:28;;;;;;;20.98;7.85;;;;;;;;;;5018714;28;20033;-81
2022/12/11 17:05:54;;;;;;;16.88;7.85;;;;;;;;;;5014173;28;20051;-81
2022/12/11 17:08:20;;;;;;;12.45;6.72;;;;;;;;;;5014544;28;20038;-82
2022/12/11 17:10:45;;;;;;;17.23;7.40;;;;;;;;;;4993605;28;20073;-81
2022/12/11 17:13:10;;;;;;;16.02;7.50;;;;;;;;;;5022822;28;20108;-80
2022/12/11 17:15:41;;;;;;;13.07;6.50;;;;;;;;;;5024404;28;20055;-81
2022/12/11 17:18:06;;;;;;;15.63;7.40;;;;;;;;;;5024606;28;20044;-81
2022/12/11 17:20:32;;;;;;;12.23;6.07;;;;;;;;;;5032911;28;20046;-81
2022/12/11 17:22:57;;;;;;;12.25;6.80;;;;;;;;;;5022896;28;20042;-81
2022/12/11 17:25:23;;;;;;;10.55;5.30;;;;;;;;;;5024047;28;20116;-82
2022/12/11 17:27:49;;;;;;;10.55;5.53;;;;;;;;;;5023505;28;20425;-81
2022/12/11 17:30:14;;;;;;;9.75;5.97;;;;;;;;;;5006611;28;20045;-81
2022/12/11 17:32:40;;;;;;;16.88;7.72;;;;;;;;;;5016696;28;20505;-78
2022/12/11 17:35:05;;;;;;;13.05;6.03;;;;;;;;;;5009455;28;20045;-81
2022/12/11 17:37:31;;;;;;;9.98;5.22;;;;;;;;;;5012685;28;20041;-81
2022/12/11 17:39:56;;;;;;;11.20;4.75;;;;;;;;;;5028736;28;20030;-82
2022/12/11 17:42:21;;;;;;;12.38;5.18;;;;;;;;;;5042725;28;20041;-81
2022/12/11 17:44:47;;;;;;;9.35;5.10;;;;;;;;;;5039927;28;20041;-76
2022/12/11 17:47:12;;;;;;;8.27;4.07;;;;;;;;;;5006620;28;20084;-82
2022/12/11 17:49:39;;;;;;;12.60;5.32;;;;;;;;;;5008354;28;20065;-84
2022/12/11 17:52:04;;;;;;;14.63;5.25;;;;;;;;;;5014505;28;20440;-83
2022/12/11 17:54:30;;;;;;;11.60;4.40;;;;;;;;;;5003083;28;20165;-84
2022/12/11 17:56:55;;;;;;;11.10;6.07;;;;;;;;;;4994252;28;20034;-83
2022/12/11 17:59:21;;;;;;;13.73;6.05;;;;;;;;;;4995933;28;20062;-83
2022/12/11 18:01:46;;;;;;;12.63;5.38;;;;;;;;;;5001364;28;20029;-82
2022/12/11 18:04:12;;;;;;;12.10;5.88;;;;;;;;;;5020705;28;20025;-84
2022/12/11 18:06:37;;;;;;;13.93;6.18;;;;;;;;;;5011659;28;20038;-84
2022/12/11 18:09:03;;;;;;;11.10;5.05;;;;;;;;;;5011078;28;20056;-82
2022/12/11 18:11:29;;;;;;;12.27;4.28;;;;;;;;;;5012835;28;20678;-82
2022/12/11 18:13:55;;;;;;;7.47;3.72;;;;;;;;;;4994151;28;20052;-83
2022/12/11 18:16:28;;;;;;;3.50;2.17;;;;;;;;;;5011941;28;20029;-75
2022/12/11 18:18:55;;;;;;;7.70;3.03;;;;;;;;;;5014503;28;20457;-89
2022/12/11 18:21:23;;;;;;;10.95;4.70;;;;;;;;;;5011140;28;20080;-76
2022/12/11 18:23:49;;;;;;;7.88;3.88;;;;;;;;;;5019482;28;20033;-83
2022/12/11 18:26:17;;;;;;;12.00;5.75;;;;;;;;;;5027351;28;20052;-88
2022/12/11 18:28:42;;;;;;;10.73;5.55;;;;;;;;;;5011854;28;20029;-85
2022/12/11 18:31:08;;;;;;;19.70;6.68;;;;;;;;;;5031835;28;20422;-88
2022/12/11 18:33:38;;;;;;;4.65;3.05;;;;;;;;;;5007189;28;20046;-86
2022/12/11 18:36:05;;;;;;;11.10;3.85;;;;;;;;;;5005455;28;20057;-83
2022/12/11 18:38:30;;;;;;;8.73;3.17;;;;;;;;;;5012450;28;20555;-83
2022/12/11 18:40:55;;;;;;;8.77;4.18;;;;;;;;;;5007976;28;20041;-84
2022/12/11 18:43:21;;;;;;;6.30;3.05;;;;;;;;;;5016975;28;20116;-82
2022/12/11 18:45:46;;;;;;;6.88;3.72;;;;;;;;;;5000697;28;20053;-84
2022/12/11 18:48:13;;;;;;;9.48;3.65;;;;;;;;;;5015578;28;20136;-82
2022/12/11 18:50:46;;;;;;;5.82;3.38;;;;;;;;;;5005865;28;20038;-86
2022/12/11 18:53:12;;;;;;;5.40;2.75;;;;;;;;;;4998593;28;20080;-85
2022/12/11 18:55:47;;;;;;;10.52;5.18;;;;;;;;;;5006906;28;20116;-86
2022/12/11 18:58:15;;;;;;;5.68;3.05;;;;;;;;;;5006138;28;20033;-84
2022/12/11 19:00:42;;;;;;;9.10;2.83;;;;;;;;;;5013368;28;20128;-85
2022/12/11 19:03:08;;;;;;;13.50;2.70;;;;;;;;;;5014783;28;20045;-82
2022/12/11 19:05:34;;;;;;;7.07;2.75;;;;;;;;;;5011401;28;20127;-80
2022/12/11 19:08:01;;;;;;;5.10;2.97;;;;;;;;;;5031559;28;20046;-76
2022/12/11 19:10:26;;;;;;;9.50;4.25;;;;;;;;;;5025456;28;20044;-75
2022/12/11 19:12:52;;;;;;;3.42;2.45;;;;;;;;;;5026840;28;20037;-76
2022/12/11 19:15:17;;;;;;;8.52;4.63;;;;;;;;;;5034855;28;20546;-76
2022/12/11 19:17:43;;;;;;;7.70;2.85;;;;;;;;;;5017232;28;20589;-75
2022/12/11 19:20:09;;;;;;;7.53;4.25;;;;;;;;;;5006402;28;20428;-74
2022/12/11 19:22:35;;;;;;;8.40;4.53;;;;;;;;;;5004413;28;20038;-75
2022/12/11 19:25:01;;;;;;;5.47;2.47;;;;;;;;;;5007557;28;20022;-79
2022/12/11 19:27:26;;;;;;;7.97;3.20;;;;;;;;;;5013124;28;20042;-80
2022/12/11 19:29:52;;;;;;;2.03;1.63;;;;;;;;;;5007842;28;20037;-80
2022/12/11 19:32:17;;;;;;;5.88;2.97;;;;;;;;;;5034636;28;20503;-81
2022/12/11 19:34:42;;;;;;;7.47;3.60;;;;;;;;;;5019113;28;20034;-80
2022/12/11 19:37:08;;;;;;;4.60;2.60;;;;;;;;;;5008533;28;20037;-79
2022/12/11 19:39:33;;;;;;;6.57;3.50;;;;;;;;;;4996007;28;20056;-79
2022/12/11 19:41:59;;;;;;;12.68;4.72;;;;;;;;;;5001487;28;20061;-80
2022/12/11 19:44:24;;;;;;;18.25;5.60;;;;;;;;;;5004168;28;20532;-79
2022/12/11 19:46:49;;;;;;;13.43;4.97;;;;;;;;;;5002833;28;20513;-80
2022/12/11 19:49:15;;;;;;;6.45;3.22;;;;;;;;;;5009972;28;20049;-79
2022/12/11 19:51:41;;;;;;;13.07;5.57;;;;;;;;;;4998572;28;20802;-80
2022/12/11 19:54:10;;;;;;;7.82;4.22;;;;;;;;;;5018824;28;20044;-76
2022/12/11 19:56:35;;;;;;;11.45;4.80;;;;;;;;;;5029024;28;20030;-80
2022/12/11 19:59:02;;;;;;;7.65;2.65;;;;;;;;;;5002815;28;20052;-80
2022/12/11 20:01:30;;;;;;;5.88;3.78;;;;;;;;;;5020899;28;20494;-80
2022/12/11 20:03:58;;;;;;;8.57;3.17;;;;;;;;;;5023708;28;20034;-80
2022/12/11 20:06:33;;;;;;;15.43;4.05;;;;;;;;;;5024082;28;20038;-80
2022/12/11 20:08:59;;;;;;;12.40;5.45;;;;;;;;;;5022752;28;20034;-81
2022/12/11 20:11:25;;;;;;;14.98;4.65;;;;;;;;;;5005851;28;20053;-80
2022/12/11 20:13:50;;;;;;;4.07;2.63;;;;;;;;;;5003033;28;20419;-80
2022/12/11 20:16:18;;;;;;;12.13;5.32;;;;;;;;;;5004527;28;20081;-80
2022/12/11 20:18:44;;;;;;;9.15;3.65;;;;;;;;;;5005420;28;20038;-80
2022/12/11 20:21:13;;;;;;;8.82;4.72;;;;;;;;;;5003475;28;20470;-80
2022/12/11 20:23:39;;;;;;;5.82;4.38;;;;;;;;;;5004049;28;20045;-80
2022/12/11 20:26:09;;;;;;;19.50;6.57;;;;;;;;;;5004714;28;20037;-80
2022/12/11 20:28:35;;;;;;;12.10;4.25;;;;;;;;;;5019484;28;20045;-80
2022/12/11 20:31:10;;;;;;;4.82;2.97;;;;;;;;;;5002885;28;20022;-80
2022/12/11 20:33:36;;;;;;;14.00;5.05;;;;;;;;;;5004519;28;20042;-80
2022/12/11 20:36:08;;;;;;;10.70;4.00;;;;;;;;;;5030562;28;20060;-80
2022/12/11 20:38:36;;;;;;;3.45;3.03;;;;;;;;;;5054488;28;20407;-80
2022/12/11 20:41:02;;;;;;;8.20;3.47;;;;;;;;;;5019349;28;20515;-79
2022/12/11 20:43:27;;;;;;;3.40;1.98;;;;;;;;;;5002800;28;20521;-80
2022/12/11 20:45:52;;;;;;;7.93;3.65;;;;;;;;;;5003977;28;20077;-79
2022/12/11 20:48:18;;;;;;;14.10;5.25;;;;;;;;;;5023521;28;20038;-80
2022/12/11 20:50:43;;;;;;;19.27;6.50;;;;;;;;;;5022493;28;20041;-80
2022/12/11 20:53:08;;;;;;;27.90;6.03;;;;;;;;;;5038009;28;20224;-80
2022/12/11 20:55:38;;;;;;;8.70;4.20;;;;;;;;;;5024089;28;20584;-80
2022/12/11 20:58:04;;;;;;;15.18;4.53;;;;;;;;;;5022285;28;20029;-80
2022/12/11 21:00:29;;;;;;;9.30;3.92;;;;;;;;;;5021984;28;20206;-80
2022/12/11 21:02:56;;;;;;;13.50;5.72;;;;;;;;;;5009180;28;20519;-79
2022/12/11 21:05:21;;;;;;;11.80;4.05;;;;;;;;;;5002619;28;20034;-79
2022/12/11 21:07:47;;;;;;;10.50;4.57;;;;;;;;;;5003634;28;20052;-80
2022/12/11 21:10:13;;;;;;;14.80;6.63;;;;;;;;;;5004162;28;20072;-80
2022/12/11 21:12:38;;;;;;;13.70;5.60;;;;;;;;;;5002978;28;20061;-80
2022/12/11 21:15:04;;;;;;;12.18;4.78;;;;;;;;;;5003788;28;20050;-80
2022/12/11 21:17:29;;;;;;;14.70;4.93;;;;;;;;;;5003094;28;20040;-79
2022/12/11 21:19:55;;;;;;;12.50;4.78;;;;;;;;;;5001324;28;20145;-79
2022/12/11 21:22:20;;;;;;;10.27;4.43;;;;;;;;;;5008717;28;20142;-79
2022/12/11 21:24:45;;;;;;;14.75;5.75;;;;;;;;;;5001264;28;20034;-79
2022/12/11 21:27:11;;;;;;;8.07;3.78;;;;;;;;;;5000852;28;20173;-80
2022/12/11 21:29:36;;;;;;;8.88;3.75;;;;;;;;;;5004599;28;20034;-80
2022/12/11 21:32:02;;;;;;;13.65;4.93;;;;;;;;;;5003106;28;20061;-79
2022/12/11 21:34:28;;;;;;;11.48;4.55;;;;;;;;;;5004848;28;20030;-80
2022/12/11 21:36:55;;;;;;;14.13;5.68;;;;;;;;;;5005067;28;20045;-80
2022/12/11 21:39:22;;;;;;;10.85;3.58;;;;;;;;;;5004254;28;20042;-77
2022/12/11 21:41:47;;;;;;;9.40;5.25;;;;;;;;;;5002956;28;20124;-79
2022/12/11 21:44:12;;;;;;;9.07;4.75;;;;;;;;;;5004366;28;20125;-79
2022/12/11 21:46:38;;;;;;;11.18;5.40;;;;;;;;;;5011116;28;20022;-79
2022/12/11 21:49:03;;;;;;;14.52;7.20;;;;;;;;;;5033284;28;20033;-79
2022/12/11 21:51:32;;;;;;;9.98;4.28;;;;;;;;;;5019268;28;20042;-79
2022/12/11 21:53:58;;;;;;;9.70;5.20;;;;;;;;;;5014071;28;20038;-80
2022/12/11 21:56:25;;;;;;;10.18;4.85;;;;;;;;;;5024576;28;20041;-79
2022/12/11 21:58:53;;;;;;;12.68;4.70;;;;;;;;;;5021577;28;20033;-79
2022/12/11 22:01:19;;;;;;;13.60;5.65;;;;;;;;;;5021856;28;20029;-80
2022/12/11 22:03:45;;;;;;;13.32;5.65;;;;;;;;;;5024001;28;20422;-79
2022/12/11 22:06:11;;;;;;;7.60;4.13;;;;;;;;;;5021098;28;20622;-78
2022/12/11 22:08:36;;;;;;;12.68;5.68;;;;;;;;;;5013718;28;20041;-79
2022/12/11 22:11:02;;;;;;;8.85;3.97;;;;;;;;;;5019671;28;20048;-80
2022/12/11 22:13:27;;;;;;;13.00;5.50;;;;;;;;;;5021613;28;20045;-81
2022/12/11 22:15:53;;;;;;;5.57;3.58;;;;;;;;;;5038452;28;20084;-80
2022/12/11 22:18:19;;;;;;;11.13;4.60;;;;;;;;;;5036949;28;20103;-80
2022/12/11 22:20:45;;;;;;;9.55;5.32;;;;;;;;;;5016391;28;20033;-80
2022/12/11 22:23:10;;;;;;;17.40;6.93;;;;;;;;;;5028114;28;20052;-80
2022/12/11 22:25:36;;;;;;;6.90;3.90;;;;;;;;;;5028723;28;20025;-80
2022/12/11 22:28:02;;;;;;;11.30;4.70;;;;;;;;;;5028861;28;20057;-80
2022/12/11 22:30:28;;;;;;;8.05;4.55;;;;;;;;;;5028637;28;20567;-80
2022/12/11 22:32:53;;;;;;;12.00;4.90;;;;;;;;;;5025547;28;20056;-80
2022/12/11 22:35:19;;;;;;;13.57;6.22;;;;;;;;;;5027067;28;20029;-80
2022/12/11 22:37:44;;;;;;;12.75;5.38;;;;;;;;;;5042595;28;20083;-80
2022/12/11 22:40:10;;;;;;;16.80;6.95;;;;;;;;;;5042908;28;20124;-80
2022/12/11 22:42:35;;;;;;;13.07;5.93;;;;;;;;;;5043571;28;20124;-80
2022/12/11 22:45:01;;;;;;;10.60;3.85;;;;;;;;;;5022192;28;21082;-80
2022/12/11 22:47:26;;;;;;;8.13;3.72;;;;;;;;;;5034312;28;20498;-80
2022/12/11 22:49:53;;;;;;;16.58;6.00;;;;;;;;;;5044238;28;20575;-80
2022/12/11 22:52:18;;;;;;;9.75;2.85;;;;;;;;;;5027195;28;20040;-80
2022/12/11 22:54:44;;;;;;;9.90;4.85;;;;;;;;;;5008114;28;20054;-80
2022/12/11 22:57:09;;;;;;;6.70;3.92;;;;;;;;;;5017058;28;20041;-83
2022/12/11 22:59:35;;;;;;;7.22;3.42;;;;;;;;;;5007716;28;20065;-80
2022/12/11 23:02:01;;;;;;;11.48;3.25;;;;;;;;;;5007523;28;20034;-81
2022/12/11 23:04:26;;;;;;;15.18;5.30;;;;;;;;;;5005301;28;20044;-81
2022/12/11 23:06:51;;;;;;;9.27;3.63;;;;;;;;;;5008357;28;20550;-81
2022/12/11 23:09:17;;;;;;;5.90;3.30;;;;;;;;;;5006534;28;20546;-81
2022/12/11 23:11:43;;;;;;;7.28;3.25;;;;;;;;;;5010868;28;20096;-81
2022/12/11 23:14:13;;;;;;;10.55;3.58;;;;;;;;;;5023543;28;20037;-80
2022/12/11 23:16:38;;;;;;;6.40;4.05;;;;;;;;;;5026286;28;20112;-80
2022/12/11 23:19:04;;;;;;;7.25;2.65;;;;;;;;;;5023972;28;20473;-80
2022/12/11 23:21:30;;;;;;;12.73;6.28;;;;;;;;;;5036433;28;20514;-80
2022/12/11 23:23:56;;;;;;;5.35;3.25;;;;;;;;;;5027474;28;20112;-80
2022/12/11 23:26:22;;;;;;;8.18;3.83;;;;;;;;;;5026856;28;20034;-80
2022/12/11 23:28:48;;;;;;;7.05;2.85;;;;;;;;;;5027530;28;20036;-81
2022/12/11 23:31:14;;;;;;;9.63;3.65;;;;;;;;;;5042638;28;20025;-80
2022/12/11 23:33:39;;;;;;;8.93;3.90;;;;;;;;;;5015327;28;20030;-80
2022/12/11 23:36:06;;;;;;;6.60;3.05;;;;;;;;;;5022631;28;20125;-80
2022/12/11 23:38:32;;;;;;;3.78;2.38;;;;;;;;;;5006273;28;20045;-80
2022/12/11 23:40:58;;;;;;;9.48;4.35;;;;;;;;;;5009150;28;20033;-80
2022/12/11 23:43:24;;;;;;;6.13;2.63;;;;;;;;;;5042860;28;20029;-81
2022/12/11 23:45:49;;;;;;;5.78;2.83;;;;;;;;;;5041966;28;20076;-81
2022/12/11 23:48:15;;;;;;;2.90;2.13;;;;;;;;;;5037762;28;20072;-80
2022/12/11 23:50:41;;;;;;;11.98;3.90;;;;;;;;;;5027330;28;20116;-80
2022/12/11 23:53:08;;;;;;;3.33;2.28;;;;;;;;;;5028104;28;20025;-80
2022/12/11 23:55:33;;;;;;;5.82;2.85;;;;;;;;;;5026255;28;20075;-81
2022/12/11 23:57:59;;;;;;;5.38;3.30;;;;;;;;;;5028110;28;20029;-80
